sensor_id;sensor_type;location;lat;lon;timestamp;temperature;humidity
3752;DHT22;50827;47.014;7.652;2023-07-28T00:01:56;18.90;99.90
3752;DHT22;50827;47.014;7.652;2023-07-28T00:04:23;18.90;99.90
3752;DHT22;50827;47.014;7.652;2023-07-28T00:06:50;18.80;99.90
3752;DHT22;50827;47.014;7.652;2023-07-28T00:09:16;18.80;99.90
3752;DHT22;50827;47.014;7.652;2023-07-28T00:11:43;18.80;99.90
3752;DHT22;50827;47.014;7.652;2023-07-28T00:14:10;18.70;99.90
3752;DHT22;50827;47.014;7.652;2023-07-28T00:16:36;18.80;99.90
3752;DHT22;50827;47.014;7.652;2023-07-28T00:19:04;18.70;99.90
3752;DHT22;50827;47.014;7.652;2023-07-28T00:21:30;18.60;99.90
3752;DHT22;50827;47.014;7.652;2023-07-28T00:23:57;18.70;99.90
3752;DHT22;50827;47.014;7.652;2023-07-28T00:26:24;18.70;99.90
3752;DHT22;50827;47.014;7.652;2023-07-28T00:28:50;18.60;99.90
3752;DHT22;50827;47.014;7.652;2023-07-28T00:31:17;18.60;99.90
3752;DHT22;50827;47.014;7.652;2023-07-28T00:33:44;18.60;99.90
3752;DHT22;50827;47.014;7.652;2023-07-28T00:36:10;18.60;99.90
3752;DHT22;50827;47.014;7.652;2023-07-28T00:38:37;18.50;99.90
3752;DHT22;50827;47.014;7.652;2023-07-28T00:41:04;18.60;99.90
3752;DHT22;50827;47.014;7.652;2023-07-28T00:43:30;18.50;99.90
3752;DHT22;50827;47.014;7.652;2023-07-28T00:45:57;18.40;99.90
3752;DHT22;50827;47.014;7.652;2023-07-28T00:48:24;18.50;99.90
3752;DHT22;50827;47.014;7.652;2023-07-28T00:50:52;18.50;99.90
3752;DHT22;50827;47.014;7.652;2023-07-28T00:53:22;18.40;99.90
3752;DHT22;50827;47.014;7.652;2023-07-28T00:55:50;18.40;99.90
3752;DHT22;50827;47.014;7.652;2023-07-28T00:58:17;18.40;99.90
3752;DHT22;50827;47.014;7.652;2023-07-28T01:00:44;18.30;99.90
3752;DHT22;50827;47.014;7.652;2023-07-28T01:03:11;18.30;99.90
3752;DHT22;50827;47.014;7.652;2023-07-28T01:08:30;18.30;99.90
3752;DHT22;50827;47.014;7.652;2023-07-28T01:10:59;18.30;99.90
3752;DHT22;50827;47.014;7.652;2023-07-28T01:13:26;18.30;99.90
3752;DHT22;50827;47.014;7.652;2023-07-28T01:15:52;18.30;99.90
3752;DHT22;50827;47.014;7.652;2023-07-28T01:18:19;18.20;99.90
3752;DHT22;50827;47.014;7.652;2023-07-28T01:20:46;18.20;99.90
3752;DHT22;50827;47.014;7.652;2023-07-28T01:23:20;18.20;99.90
3752;DHT22;50827;47.014;7.652;2023-07-28T01:26:00;18.30;99.90
3752;DHT22;50827;47.014;7.652;2023-07-28T01:28:29;18.30;99.90
3752;DHT22;50827;47.014;7.652;2023-07-28T01:30:57;18.40;99.90
3752;DHT22;50827;47.014;7.652;2023-07-28T01:33:24;18.30;99.90
3752;DHT22;50827;47.014;7.652;2023-07-28T01:35:50;18.30;99.90
3752;DHT22;50827;47.014;7.652;2023-07-28T01:38:17;18.30;99.90
3752;DHT22;50827;47.014;7.652;2023-07-28T01:40:44;18.30;99.90
3752;DHT22;50827;47.014;7.652;2023-07-28T01:43:11;18.30;99.90
3752;DHT22;50827;47.014;7.652;2023-07-28T01:45:37;18.30;99.90
3752;DHT22;50827;47.014;7.652;2023-07-28T01:48:04;18.30;99.90
3752;DHT22;50827;47.014;7.652;2023-07-28T01:50:32;18.30;99.90
3752;DHT22;50827;47.014;7.652;2023-07-28T01:52:58;18.30;99.90
3752;DHT22;50827;47.014;7.652;2023-07-28T01:55:25;18.30;99.90
3752;DHT22;50827;47.014;7.652;2023-07-28T01:57:57;18.30;99.90
3752;DHT22;50827;47.014;7.652;2023-07-28T02:00:24;18.30;99.90
3752;DHT22;50827;47.014;7.652;2023-07-28T02:02:51;18.30;99.90
3752;DHT22;50827;47.014;7.652;2023-07-28T02:05:18;18.30;99.90
3752;DHT22;50827;47.014;7.652;2023-07-28T02:07:46;18.20;99.90
3752;DHT22;50827;47.014;7.652;2023-07-28T02:10:13;18.10;99.90
3752;DHT22;50827;47.014;7.652;2023-07-28T02:12:39;18.10;99.90
3752;DHT22;50827;47.014;7.652;2023-07-28T02:15:07;18.10;99.90
3752;DHT22;50827;47.014;7.652;2023-07-28T02:17:34;18.00;99.90
3752;DHT22;50827;47.014;7.652;2023-07-28T02:20:01;18.10;99.90
3752;DHT22;50827;47.014;7.652;2023-07-28T02:22:30;18.00;99.90
3752;DHT22;50827;47.014;7.652;2023-07-28T02:24:56;17.90;99.90
3752;DHT22;50827;47.014;7.652;2023-07-28T02:27:28;18.00;99.90
3752;DHT22;50827;47.014;7.652;2023-07-28T02:29:55;17.90;99.90
3752;DHT22;50827;47.014;7.652;2023-07-28T02:32:21;17.80;99.90
3752;DHT22;50827;47.014;7.652;2023-07-28T02:34:48;17.80;99.90
3752;DHT22;50827;47.014;7.652;2023-07-28T02:37:15;17.70;99.90
3752;DHT22;50827;47.014;7.652;2023-07-28T02:39:42;17.70;99.90
3752;DHT22;50827;47.014;7.652;2023-07-28T02:42:09;17.70;99.90
3752;DHT22;50827;47.014;7.652;2023-07-28T02:44:36;17.70;99.90
3752;DHT22;50827;47.014;7.652;2023-07-28T02:47:03;17.70;99.90
3752;DHT22;50827;47.014;7.652;2023-07-28T02:49:30;17.70;99.90
3752;DHT22;50827;47.014;7.652;2023-07-28T02:51:56;17.70;99.90
3752;DHT22;50827;47.014;7.652;2023-07-28T02:54:23;17.60;99.90
3752;DHT22;50827;47.014;7.652;2023-07-28T02:56:51;17.60;99.90
3752;DHT22;50827;47.014;7.652;2023-07-28T02:59:19;17.60;99.90
3752;DHT22;50827;47.014;7.652;2023-07-28T03:01:45;17.60;99.90
3752;DHT22;50827;47.014;7.652;2023-07-28T03:04:12;17.60;99.90
3752;DHT22;50827;47.014;7.652;2023-07-28T03:06:39;17.50;99.90
3752;DHT22;50827;47.014;7.652;2023-07-28T03:09:06;17.50;99.90
3752;DHT22;50827;47.014;7.652;2023-07-28T03:11:33;17.50;99.90
3752;DHT22;50827;47.014;7.652;2023-07-28T03:13:59;17.50;99.90
3752;DHT22;50827;47.014;7.652;2023-07-28T03:16:26;17.40;99.90
3752;DHT22;50827;47.014;7.652;2023-07-28T03:18:53;17.40;99.90
3752;DHT22;50827;47.014;7.652;2023-07-28T03:21:19;17.40;99.90
3752;DHT22;50827;47.014;7.652;2023-07-28T03:23:46;17.30;99.90
3752;DHT22;50827;47.014;7.652;2023-07-28T03:26:13;17.30;99.90
3752;DHT22;50827;47.014;7.652;2023-07-28T03:28:39;17.30;99.90
3752;DHT22;50827;47.014;7.652;2023-07-28T03:31:06;17.30;99.90
3752;DHT22;50827;47.014;7.652;2023-07-28T03:33:33;17.30;99.90
3752;DHT22;50827;47.014;7.652;2023-07-28T03:35:59;17.30;99.90
3752;DHT22;50827;47.014;7.652;2023-07-28T03:38:26;17.30;99.90
3752;DHT22;50827;47.014;7.652;2023-07-28T03:40:53;17.40;99.90
3752;DHT22;50827;47.014;7.652;2023-07-28T03:43:20;17.30;99.90
3752;DHT22;50827;47.014;7.652;2023-07-28T03:45:47;17.20;99.90
3752;DHT22;50827;47.014;7.652;2023-07-28T03:48:14;17.20;99.90
3752;DHT22;50827;47.014;7.652;2023-07-28T03:50:41;17.30;99.90
3752;DHT22;50827;47.014;7.652;2023-07-28T03:53:08;17.30;99.90
3752;DHT22;50827;47.014;7.652;2023-07-28T03:55:35;17.30;99.90
3752;DHT22;50827;47.014;7.652;2023-07-28T03:58:01;17.30;99.90
3752;DHT22;50827;47.014;7.652;2023-07-28T04:00:29;17.20;99.90
3752;DHT22;50827;47.014;7.652;2023-07-28T04:02:56;17.20;99.90
3752;DHT22;50827;47.014;7.652;2023-07-28T04:05:23;17.10;99.90
3752;DHT22;50827;47.014;7.652;2023-07-28T04:07:50;17.10;99.90
3752;DHT22;50827;47.014;7.652;2023-07-28T04:10:16;17.10;99.90
3752;DHT22;50827;47.014;7.652;2023-07-28T04:12:43;17.00;99.90
3752;DHT22;50827;47.014;7.652;2023-07-28T04:15:10;17.00;99.90
3752;DHT22;50827;47.014;7.652;2023-07-28T04:17:36;17.10;99.90
3752;DHT22;50827;47.014;7.652;2023-07-28T04:20:04;17.10;99.90
3752;DHT22;50827;47.014;7.652;2023-07-28T04:22:31;17.10;99.90
3752;DHT22;50827;47.014;7.652;2023-07-28T04:24:57;17.10;99.90
3752;DHT22;50827;47.014;7.652;2023-07-28T04:27:24;17.10;99.90
3752;DHT22;50827;47.014;7.652;2023-07-28T04:29:51;17.20;99.90
3752;DHT22;50827;47.014;7.652;2023-07-28T04:32:17;17.20;99.90
3752;DHT22;50827;47.014;7.652;2023-07-28T04:34:44;17.20;99.90
3752;DHT22;50827;47.014;7.652;2023-07-28T04:37:11;17.20;99.90
3752;DHT22;50827;47.014;7.652;2023-07-28T04:39:37;17.20;99.90
3752;DHT22;50827;47.014;7.652;2023-07-28T04:42:04;17.30;99.90
3752;DHT22;50827;47.014;7.652;2023-07-28T04:44:31;17.30;99.90
3752;DHT22;50827;47.014;7.652;2023-07-28T04:46:57;17.30;99.90
3752;DHT22;50827;47.014;7.652;2023-07-28T04:49:24;17.30;99.90
3752;DHT22;50827;47.014;7.652;2023-07-28T04:51:51;17.40;99.90
3752;DHT22;50827;47.014;7.652;2023-07-28T04:54:18;17.40;99.90
3752;DHT22;50827;47.014;7.652;2023-07-28T04:56:44;17.40;99.90
3752;DHT22;50827;47.014;7.652;2023-07-28T04:59:12;17.40;99.90
3752;DHT22;50827;47.014;7.652;2023-07-28T05:01:39;17.50;99.90
3752;DHT22;50827;47.014;7.652;2023-07-28T05:04:06;17.50;99.90
3752;DHT22;50827;47.014;7.652;2023-07-28T05:06:32;17.60;99.90
3752;DHT22;50827;47.014;7.652;2023-07-28T05:08:59;17.60;99.90
3752;DHT22;50827;47.014;7.652;2023-07-28T05:11:26;17.60;99.90
3752;DHT22;50827;47.014;7.652;2023-07-28T05:13:52;17.70;99.90
3752;DHT22;50827;47.014;7.652;2023-07-28T05:16:19;17.80;99.90
3752;DHT22;50827;47.014;7.652;2023-07-28T05:18:46;17.90;99.90
3752;DHT22;50827;47.014;7.652;2023-07-28T05:21:13;17.90;99.90
3752;DHT22;50827;47.014;7.652;2023-07-28T05:23:39;18.00;99.90
3752;DHT22;50827;47.014;7.652;2023-07-28T05:26:06;18.00;99.90
3752;DHT22;50827;47.014;7.652;2023-07-28T05:28:34;18.10;99.90
3752;DHT22;50827;47.014;7.652;2023-07-28T05:31:06;18.10;99.90
3752;DHT22;50827;47.014;7.652;2023-07-28T05:33:33;18.10;99.90
3752;DHT22;50827;47.014;7.652;2023-07-28T05:36:03;18.20;99.90
3752;DHT22;50827;47.014;7.652;2023-07-28T05:38:32;18.20;99.90
3752;DHT22;50827;47.014;7.652;2023-07-28T05:40:59;18.20;99.90
3752;DHT22;50827;47.014;7.652;2023-07-28T05:43:30;18.40;99.90
3752;DHT22;50827;47.014;7.652;2023-07-28T05:45:58;18.50;99.90
3752;DHT22;50827;47.014;7.652;2023-07-28T05:48:26;18.60;99.90
3752;DHT22;50827;47.014;7.652;2023-07-28T05:50:52;18.60;99.90
3752;DHT22;50827;47.014;7.652;2023-07-28T05:53:21;18.70;99.90
3752;DHT22;50827;47.014;7.652;2023-07-28T05:55:48;18.90;99.90
3752;DHT22;50827;47.014;7.652;2023-07-28T05:58:15;19.00;99.90
3752;DHT22;50827;47.014;7.652;2023-07-28T06:00:42;19.00;99.90
3752;DHT22;50827;47.014;7.652;2023-07-28T06:03:12;19.10;99.90
3752;DHT22;50827;47.014;7.652;2023-07-28T06:05:42;19.20;99.90
3752;DHT22;50827;47.014;7.652;2023-07-28T06:08:09;19.30;99.90
3752;DHT22;50827;47.014;7.652;2023-07-28T06:10:37;19.40;99.90
3752;DHT22;50827;47.014;7.652;2023-07-28T06:13:03;19.50;99.90
3752;DHT22;50827;47.014;7.652;2023-07-28T06:15:30;19.60;99.90
3752;DHT22;50827;47.014;7.652;2023-07-28T06:17:57;19.60;99.90
3752;DHT22;50827;47.014;7.652;2023-07-28T06:20:23;19.60;99.90
3752;DHT22;50827;47.014;7.652;2023-07-28T06:22:50;19.80;99.90
3752;DHT22;50827;47.014;7.652;2023-07-28T06:25:17;19.80;99.90
3752;DHT22;50827;47.014;7.652;2023-07-28T06:27:44;19.90;99.90
3752;DHT22;50827;47.014;7.652;2023-07-28T06:30:11;20.00;99.90
3752;DHT22;50827;47.014;7.652;2023-07-28T06:32:37;20.00;99.90
3752;DHT22;50827;47.014;7.652;2023-07-28T06:35:05;20.10;99.90
3752;DHT22;50827;47.014;7.652;2023-07-28T06:37:36;20.10;99.90
3752;DHT22;50827;47.014;7.652;2023-07-28T06:40:05;20.20;99.90
3752;DHT22;50827;47.014;7.652;2023-07-28T06:42:33;20.30;99.90
3752;DHT22;50827;47.014;7.652;2023-07-28T06:45:01;20.40;99.90
3752;DHT22;50827;47.014;7.652;2023-07-28T06:47:28;20.50;99.90
3752;DHT22;50827;47.014;7.652;2023-07-28T06:49:55;20.60;99.90
3752;DHT22;50827;47.014;7.652;2023-07-28T06:52:22;20.60;99.90
3752;DHT22;50827;47.014;7.652;2023-07-28T06:54:49;20.70;99.90
3752;DHT22;50827;47.014;7.652;2023-07-28T06:57:16;20.70;99.90
3752;DHT22;50827;47.014;7.652;2023-07-28T06:59:43;20.70;99.90
3752;DHT22;50827;47.014;7.652;2023-07-28T07:02:09;20.80;99.90
3752;DHT22;50827;47.014;7.652;2023-07-28T07:04:36;20.90;99.90
3752;DHT22;50827;47.014;7.652;2023-07-28T07:07:03;21.00;99.90
3752;DHT22;50827;47.014;7.652;2023-07-28T07:09:30;21.10;99.90
3752;DHT22;50827;47.014;7.652;2023-07-28T07:11:57;21.20;99.90
3752;DHT22;50827;47.014;7.652;2023-07-28T07:14:24;21.30;99.90
3752;DHT22;50827;47.014;7.652;2023-07-28T07:16:50;21.40;99.90
3752;DHT22;50827;47.014;7.652;2023-07-28T07:19:17;21.60;99.90
3752;DHT22;50827;47.014;7.652;2023-07-28T07:21:44;21.60;99.90
3752;DHT22;50827;47.014;7.652;2023-07-28T07:24:11;21.80;99.90
3752;DHT22;50827;47.014;7.652;2023-07-28T07:26:40;21.80;99.90
3752;DHT22;50827;47.014;7.652;2023-07-28T07:29:08;22.00;99.90
3752;DHT22;50827;47.014;7.652;2023-07-28T07:31:35;22.00;99.90
3752;DHT22;50827;47.014;7.652;2023-07-28T07:34:03;22.00;99.90
3752;DHT22;50827;47.014;7.652;2023-07-28T07:36:31;22.00;99.90
3752;DHT22;50827;47.014;7.652;2023-07-28T07:38:58;22.10;99.90
3752;DHT22;50827;47.014;7.652;2023-07-28T07:41:25;22.10;99.90
3752;DHT22;50827;47.014;7.652;2023-07-28T07:43:55;22.20;99.90
3752;DHT22;50827;47.014;7.652;2023-07-28T07:46:22;22.20;99.90
3752;DHT22;50827;47.014;7.652;2023-07-28T07:48:49;22.20;99.90
3752;DHT22;50827;47.014;7.652;2023-07-28T07:51:16;22.30;99.90
3752;DHT22;50827;47.014;7.652;2023-07-28T07:53:43;22.40;99.90
3752;DHT22;50827;47.014;7.652;2023-07-28T07:56:10;22.50;99.90
3752;DHT22;50827;47.014;7.652;2023-07-28T07:58:37;22.60;99.90
3752;DHT22;50827;47.014;7.652;2023-07-28T08:01:04;22.70;99.90
3752;DHT22;50827;47.014;7.652;2023-07-28T08:03:31;22.80;99.90
3752;DHT22;50827;47.014;7.652;2023-07-28T08:06:03;22.80;99.90
3752;DHT22;50827;47.014;7.652;2023-07-28T08:08:30;22.90;99.90
3752;DHT22;50827;47.014;7.652;2023-07-28T08:10:57;22.90;99.90
3752;DHT22;50827;47.014;7.652;2023-07-28T08:13:26;23.00;99.90
3752;DHT22;50827;47.014;7.652;2023-07-28T08:15:52;23.20;99.90
3752;DHT22;50827;47.014;7.652;2023-07-28T08:18:19;23.20;99.90
3752;DHT22;50827;47.014;7.652;2023-07-28T08:20:46;23.20;99.90
3752;DHT22;50827;47.014;7.652;2023-07-28T08:23:13;23.30;99.90
3752;DHT22;50827;47.014;7.652;2023-07-28T08:25:39;23.30;99.90
3752;DHT22;50827;47.014;7.652;2023-07-28T08:28:06;23.30;99.90
3752;DHT22;50827;47.014;7.652;2023-07-28T08:30:33;23.40;99.90
3752;DHT22;50827;47.014;7.652;2023-07-28T08:32:59;23.40;99.90
3752;DHT22;50827;47.014;7.652;2023-07-28T08:35:26;23.40;99.90
3752;DHT22;50827;47.014;7.652;2023-07-28T08:37:54;23.50;99.90
3752;DHT22;50827;47.014;7.652;2023-07-28T08:40:21;23.50;99.90
3752;DHT22;50827;47.014;7.652;2023-07-28T08:42:47;23.70;99.90
3752;DHT22;50827;47.014;7.652;2023-07-28T08:45:17;23.80;99.90
3752;DHT22;50827;47.014;7.652;2023-07-28T08:47:45;23.90;99.90
3752;DHT22;50827;47.014;7.652;2023-07-28T08:50:12;24.00;99.90
3752;DHT22;50827;47.014;7.652;2023-07-28T08:52:39;24.00;99.90
3752;DHT22;50827;47.014;7.652;2023-07-28T08:55:06;24.00;99.90
3752;DHT22;50827;47.014;7.652;2023-07-28T08:57:33;24.10;99.90
3752;DHT22;50827;47.014;7.652;2023-07-28T09:00:10;24.20;99.90
3752;DHT22;50827;47.014;7.652;2023-07-28T09:02:43;24.40;99.90
3752;DHT22;50827;47.014;7.652;2023-07-28T09:05:22;24.50;99.90
3752;DHT22;50827;47.014;7.652;2023-07-28T09:07:50;24.50;99.90
3752;DHT22;50827;47.014;7.652;2023-07-28T09:10:18;24.60;99.90
3752;DHT22;50827;47.014;7.652;2023-07-28T09:12:48;24.60;99.90
3752;DHT22;50827;47.014;7.652;2023-07-28T09:15:15;24.70;99.90
3752;DHT22;50827;47.014;7.652;2023-07-28T09:17:44;24.70;99.90
3752;DHT22;50827;47.014;7.652;2023-07-28T09:20:15;24.80;99.90
3752;DHT22;50827;47.014;7.652;2023-07-28T09:22:43;25.00;99.90
3752;DHT22;50827;47.014;7.652;2023-07-28T09:25:15;25.00;99.90
3752;DHT22;50827;47.014;7.652;2023-07-28T09:27:50;25.00;99.90
3752;DHT22;50827;47.014;7.652;2023-07-28T09:30:17;25.10;99.90
3752;DHT22;50827;47.014;7.652;2023-07-28T09:32:49;25.10;99.90
3752;DHT22;50827;47.014;7.652;2023-07-28T09:35:16;25.00;99.90
3752;DHT22;50827;47.014;7.652;2023-07-28T09:37:45;25.00;99.90
3752;DHT22;50827;47.014;7.652;2023-07-28T09:40:13;25.00;99.90
3752;DHT22;50827;47.014;7.652;2023-07-28T09:42:45;25.10;99.90
3752;DHT22;50827;47.014;7.652;2023-07-28T09:45:19;25.00;99.90
3752;DHT22;50827;47.014;7.652;2023-07-28T09:48:06;25.00;99.90
3752;DHT22;50827;47.014;7.652;2023-07-28T09:50:37;25.00;99.90
3752;DHT22;50827;47.014;7.652;2023-07-28T09:53:06;25.00;99.90
3752;DHT22;50827;47.014;7.652;2023-07-28T09:55:35;25.00;99.90
3752;DHT22;50827;47.014;7.652;2023-07-28T09:58:04;25.00;99.90
3752;DHT22;50827;47.014;7.652;2023-07-28T10:00:33;25.10;99.90
3752;DHT22;50827;47.014;7.652;2023-07-28T10:03:02;25.10;99.90
3752;DHT22;50827;47.014;7.652;2023-07-28T10:05:30;25.20;99.90
3752;DHT22;50827;47.014;7.652;2023-07-28T10:07:57;25.20;99.90
3752;DHT22;50827;47.014;7.652;2023-07-28T10:10:24;25.20;99.90
3752;DHT22;50827;47.014;7.652;2023-07-28T10:12:52;25.10;99.90
3752;DHT22;50827;47.014;7.652;2023-07-28T10:15:20;25.20;99.90
3752;DHT22;50827;47.014;7.652;2023-07-28T10:17:50;25.20;99.90
3752;DHT22;50827;47.014;7.652;2023-07-28T10:20:45;25.20;99.90
3752;DHT22;50827;47.014;7.652;2023-07-28T10:23:17;25.20;99.90
3752;DHT22;50827;47.014;7.652;2023-07-28T10:25:46;25.30;99.90
3752;DHT22;50827;47.014;7.652;2023-07-28T10:30:53;25.30;99.90
3752;DHT22;50827;47.014;7.652;2023-07-28T10:33:32;25.40;99.90
3752;DHT22;50827;47.014;7.652;2023-07-28T10:36:31;25.30;99.90
3752;DHT22;50827;47.014;7.652;2023-07-28T10:39:15;25.40;99.90
3752;DHT22;50827;47.014;7.652;2023-07-28T10:44:31;25.40;99.90
3752;DHT22;50827;47.014;7.652;2023-07-28T10:46:59;25.40;99.90
3752;DHT22;50827;47.014;7.652;2023-07-28T10:49:25;25.40;99.90
3752;DHT22;50827;47.014;7.652;2023-07-28T10:51:53;25.40;99.90
3752;DHT22;50827;47.014;7.652;2023-07-28T10:54:20;25.50;99.90
3752;DHT22;50827;47.014;7.652;2023-07-28T10:56:48;25.50;99.90
3752;DHT22;50827;47.014;7.652;2023-07-28T10:59:15;25.50;99.90
3752;DHT22;50827;47.014;7.652;2023-07-28T11:01:43;25.50;99.90
3752;DHT22;50827;47.014;7.652;2023-07-28T11:04:15;25.50;99.90
3752;DHT22;50827;47.014;7.652;2023-07-28T11:06:47;25.60;99.90
3752;DHT22;50827;47.014;7.652;2023-07-28T11:09:17;25.70;99.90
3752;DHT22;50827;47.014;7.652;2023-07-28T11:11:44;25.80;99.90
3752;DHT22;50827;47.014;7.652;2023-07-28T11:14:15;25.90;99.90
3752;DHT22;50827;47.014;7.652;2023-07-28T11:16:42;26.10;99.90
3752;DHT22;50827;47.014;7.652;2023-07-28T11:19:12;26.20;99.90
3752;DHT22;50827;47.014;7.652;2023-07-28T11:21:43;26.20;99.90
3752;DHT22;50827;47.014;7.652;2023-07-28T11:24:11;26.30;99.90
3752;DHT22;50827;47.014;7.652;2023-07-28T11:26:38;26.30;99.90
3752;DHT22;50827;47.014;7.652;2023-07-28T11:29:06;26.20;99.90
3752;DHT22;50827;47.014;7.652;2023-07-28T11:31:34;26.10;99.90
3752;DHT22;50827;47.014;7.652;2023-07-28T11:34:01;26.20;99.90
3752;DHT22;50827;47.014;7.652;2023-07-28T11:36:29;26.20;99.90
3752;DHT22;50827;47.014;7.652;2023-07-28T11:38:59;26.20;99.90
3752;DHT22;50827;47.014;7.652;2023-07-28T11:41:27;26.20;99.90
3752;DHT22;50827;47.014;7.652;2023-07-28T11:43:54;26.30;99.90
3752;DHT22;50827;47.014;7.652;2023-07-28T11:46:38;26.30;99.90
3752;DHT22;50827;47.014;7.652;2023-07-28T11:49:17;26.30;99.90
3752;DHT22;50827;47.014;7.652;2023-07-28T11:51:54;26.30;99.90
3752;DHT22;50827;47.014;7.652;2023-07-28T11:54:22;26.40;99.90
3752;DHT22;50827;47.014;7.652;2023-07-28T11:56:51;26.40;99.90
3752;DHT22;50827;47.014;7.652;2023-07-28T11:59:20;26.50;99.90
3752;DHT22;50827;47.014;7.652;2023-07-28T12:04:30;26.40;99.90
3752;DHT22;50827;47.014;7.652;2023-07-28T12:07:08;26.40;99.90
3752;DHT22;50827;47.014;7.652;2023-07-28T12:12:31;26.60;99.90
3752;DHT22;50827;47.014;7.652;2023-07-28T12:15:28;26.50;99.90
3752;DHT22;50827;47.014;7.652;2023-07-28T12:18:15;26.60;99.90
3752;DHT22;50827;47.014;7.652;2023-07-28T12:20:46;26.50;99.90
3752;DHT22;50827;47.014;7.652;2023-07-28T12:23:15;26.50;99.90
3752;DHT22;50827;47.014;7.652;2023-07-28T12:25:46;26.50;99.90
3752;DHT22;50827;47.014;7.652;2023-07-28T12:28:13;26.50;99.90
3752;DHT22;50827;47.014;7.652;2023-07-28T12:30:42;26.30;99.90
3752;DHT22;50827;47.014;7.652;2023-07-28T12:33:10;26.40;99.90
3752;DHT22;50827;47.014;7.652;2023-07-28T12:35:40;26.50;99.90
3752;DHT22;50827;47.014;7.652;2023-07-28T12:38:09;26.50;99.90
3752;DHT22;50827;47.014;7.652;2023-07-28T12:40:39;26.60;99.90
3752;DHT22;50827;47.014;7.652;2023-07-28T12:43:09;26.60;99.90
3752;DHT22;50827;47.014;7.652;2023-07-28T12:45:56;26.70;99.90
3752;DHT22;50827;47.014;7.652;2023-07-28T12:48:26;26.60;99.90
3752;DHT22;50827;47.014;7.652;2023-07-28T12:50:53;26.70;99.90
3752;DHT22;50827;47.014;7.652;2023-07-28T12:53:22;26.70;99.90
3752;DHT22;50827;47.014;7.652;2023-07-28T12:55:49;26.70;99.90
3752;DHT22;50827;47.014;7.652;2023-07-28T12:58:19;26.60;99.90
3752;DHT22;50827;47.014;7.652;2023-07-28T13:00:49;26.50;99.90
3752;DHT22;50827;47.014;7.652;2023-07-28T13:03:18;26.60;99.90
3752;DHT22;50827;47.014;7.652;2023-07-28T13:05:46;26.60;99.90
3752;DHT22;50827;47.014;7.652;2023-07-28T13:08:15;26.60;99.90
3752;DHT22;50827;47.014;7.652;2023-07-28T13:10:42;26.70;99.90
3752;DHT22;50827;47.014;7.652;2023-07-28T13:13:11;26.70;99.90
3752;DHT22;50827;47.014;7.652;2023-07-28T13:15:40;26.70;99.90
3752;DHT22;50827;47.014;7.652;2023-07-28T13:18:06;26.70;99.90
3752;DHT22;50827;47.014;7.652;2023-07-28T13:20:34;26.60;99.90
3752;DHT22;50827;47.014;7.652;2023-07-28T13:23:00;26.70;99.90
3752;DHT22;50827;47.014;7.652;2023-07-28T13:25:27;26.80;99.90
3752;DHT22;50827;47.014;7.652;2023-07-28T13:27:54;26.80;99.90
3752;DHT22;50827;47.014;7.652;2023-07-28T13:30:21;26.80;99.90
3752;DHT22;50827;47.014;7.652;2023-07-28T13:32:48;26.90;99.90
3752;DHT22;50827;47.014;7.652;2023-07-28T13:35:15;26.90;99.90
3752;DHT22;50827;47.014;7.652;2023-07-28T13:37:43;27.10;99.90
3752;DHT22;50827;47.014;7.652;2023-07-28T13:40:09;27.30;99.90
3752;DHT22;50827;47.014;7.652;2023-07-28T13:42:39;27.50;99.90
3752;DHT22;50827;47.014;7.652;2023-07-28T13:45:06;27.50;99.90
3752;DHT22;50827;47.014;7.652;2023-07-28T13:47:34;27.50;99.90
3752;DHT22;50827;47.014;7.652;2023-07-28T13:50:01;27.40;99.90
3752;DHT22;50827;47.014;7.652;2023-07-28T13:52:27;27.30;99.90
3752;DHT22;50827;47.014;7.652;2023-07-28T13:54:54;27.30;99.90
3752;DHT22;50827;47.014;7.652;2023-07-28T13:57:24;27.30;99.90
3752;DHT22;50827;47.014;7.652;2023-07-28T13:59:51;27.30;99.90
3752;DHT22;50827;47.014;7.652;2023-07-28T14:02:17;27.50;99.90
3752;DHT22;50827;47.014;7.652;2023-07-28T14:04:47;27.60;99.90
3752;DHT22;50827;47.014;7.652;2023-07-28T14:07:14;27.70;99.90
3752;DHT22;50827;47.014;7.652;2023-07-28T14:09:41;27.80;99.90
3752;DHT22;50827;47.014;7.652;2023-07-28T14:12:08;27.90;99.90
3752;DHT22;50827;47.014;7.652;2023-07-28T14:14:34;28.10;99.90
3752;DHT22;50827;47.014;7.652;2023-07-28T14:17:01;28.10;99.90
3752;DHT22;50827;47.014;7.652;2023-07-28T14:19:28;28.10;99.90
3752;DHT22;50827;47.014;7.652;2023-07-28T14:21:55;28.10;99.90
3752;DHT22;50827;47.014;7.652;2023-07-28T14:24:21;28.30;99.90
3752;DHT22;50827;47.014;7.652;2023-07-28T14:26:48;28.30;99.90
3752;DHT22;50827;47.014;7.652;2023-07-28T14:29:15;28.20;99.90
3752;DHT22;50827;47.014;7.652;2023-07-28T14:31:41;28.10;99.90
3752;DHT22;50827;47.014;7.652;2023-07-28T14:34:08;28.10;99.90
3752;DHT22;50827;47.014;7.652;2023-07-28T14:36:35;28.00;99.90
3752;DHT22;50827;47.014;7.652;2023-07-28T14:39:02;27.80;99.90
3752;DHT22;50827;47.014;7.652;2023-07-28T14:41:30;27.50;99.90
3752;DHT22;50827;47.014;7.652;2023-07-28T14:43:57;27.30;99.90
3752;DHT22;50827;47.014;7.652;2023-07-28T14:46:24;27.00;99.90
3752;DHT22;50827;47.014;7.652;2023-07-28T14:48:52;26.90;99.90
3752;DHT22;50827;47.014;7.652;2023-07-28T14:51:19;26.80;99.90
3752;DHT22;50827;47.014;7.652;2023-07-28T14:53:47;26.60;99.90
3752;DHT22;50827;47.014;7.652;2023-07-28T14:56:15;26.30;99.90
3752;DHT22;50827;47.014;7.652;2023-07-28T14:58:43;26.20;99.90
3752;DHT22;50827;47.014;7.652;2023-07-28T15:01:10;26.10;99.90
3752;DHT22;50827;47.014;7.652;2023-07-28T15:03:38;26.00;99.90
3752;DHT22;50827;47.014;7.652;2023-07-28T15:06:05;25.90;99.90
3752;DHT22;50827;47.014;7.652;2023-07-28T15:08:32;25.90;99.90
3752;DHT22;50827;47.014;7.652;2023-07-28T15:10:59;25.80;99.90
3752;DHT22;50827;47.014;7.652;2023-07-28T15:13:26;25.60;99.90
3752;DHT22;50827;47.014;7.652;2023-07-28T15:15:54;25.60;99.90
3752;DHT22;50827;47.014;7.652;2023-07-28T15:18:21;25.60;99.90
3752;DHT22;50827;47.014;7.652;2023-07-28T15:20:47;25.70;99.90
3752;DHT22;50827;47.014;7.652;2023-07-28T15:23:14;25.80;99.90
3752;DHT22;50827;47.014;7.652;2023-07-28T15:25:43;25.80;99.90
3752;DHT22;50827;47.014;7.652;2023-07-28T15:28:12;25.80;99.90
3752;DHT22;50827;47.014;7.652;2023-07-28T15:30:39;25.90;99.90
3752;DHT22;50827;47.014;7.652;2023-07-28T15:33:11;25.90;99.90
3752;DHT22;50827;47.014;7.652;2023-07-28T15:35:38;25.90;99.90
3752;DHT22;50827;47.014;7.652;2023-07-28T15:38:04;25.90;99.90
3752;DHT22;50827;47.014;7.652;2023-07-28T15:40:31;26.00;99.90
3752;DHT22;50827;47.014;7.652;2023-07-28T15:42:58;26.00;99.90
3752;DHT22;50827;47.014;7.652;2023-07-28T15:45:25;26.00;99.90
3752;DHT22;50827;47.014;7.652;2023-07-28T15:47:51;25.90;99.90
3752;DHT22;50827;47.014;7.652;2023-07-28T15:50:18;25.90;99.90
3752;DHT22;50827;47.014;7.652;2023-07-28T15:52:45;25.90;99.90
3752;DHT22;50827;47.014;7.652;2023-07-28T15:55:12;25.80;99.90
3752;DHT22;50827;47.014;7.652;2023-07-28T15:57:41;25.80;99.90
3752;DHT22;50827;47.014;7.652;2023-07-28T16:00:09;25.70;99.90
3752;DHT22;50827;47.014;7.652;2023-07-28T16:02:36;25.60;99.90
3752;DHT22;50827;47.014;7.652;2023-07-28T16:05:04;25.50;99.90